Terminal Aerodrome Forecast
Issued by NWS Amarillo, TX

Home | Current Version | Previous Version | Text Only | Print | Product List | Glossary On
Versions: 1 2 3 4 5 6 7 8 9 10 11 12 13
000
FTUS44 KAMA 252300
TAFGUY
TAF
KGUY 252331Z 2600/2624 21011KT P6SM SCT300
     FM260600 36012KT 6SM BR OVC010
      TEMPO 2606/2609 SCT010
     FM261800 03010KT 4SM BR OVC008 PROB30 2618/2624 2SM -SN OVC004=

USA.gov is the U.S. government's official web portal to all federal, state and local government web resources and services.